sensor_id;sensor_type;location;lat;lon;timestamp;P1;durP1;ratioP1;P2;durP2;ratioP2
60257;SDS011;46115;44.484;11.314;2023-04-01T00:03:42;7.75;;;4.22;;
60257;SDS011;46115;44.484;11.314;2023-04-01T00:07:44;8.90;;;5.15;;
60257;SDS011;46115;44.484;11.314;2023-04-01T00:11:47;10.50;;;5.38;;
60257;SDS011;46115;44.484;11.314;2023-04-01T00:15:51;7.15;;;5.43;;
60257;SDS011;46115;44.484;11.314;2023-04-01T00:19:54;9.15;;;5.15;;
60257;SDS011;46115;44.484;11.314;2023-04-01T00:23:57;9.32;;;5.00;;
60257;SDS011;46115;44.484;11.314;2023-04-01T00:28:00;7.60;;;4.43;;
60257;SDS011;46115;44.484;11.314;2023-04-01T00:32:04;8.90;;;5.22;;
60257;SDS011;46115;44.484;11.314;2023-04-01T00:36:07;8.00;;;5.45;;
60257;SDS011;46115;44.484;11.314;2023-04-01T00:40:20;8.95;;;5.40;;
60257;SDS011;46115;44.484;11.314;2023-04-01T00:44:26;11.32;;;5.40;;
60257;SDS011;46115;44.484;11.314;2023-04-01T00:48:33;7.90;;;5.07;;
60257;SDS011;46115;44.484;11.314;2023-04-01T00:52:37;11.98;;;6.55;;
60257;SDS011;46115;44.484;11.314;2023-04-01T00:56:41;11.52;;;6.60;;
60257;SDS011;46115;44.484;11.314;2023-04-01T01:00:50;10.98;;;7.00;;
60257;SDS011;46115;44.484;11.314;2023-04-01T01:04:55;10.38;;;7.97;;
60257;SDS011;46115;44.484;11.314;2023-04-01T01:09:02;14.55;;;9.65;;
60257;SDS011;46115;44.484;11.314;2023-04-01T01:13:14;17.52;;;10.15;;
60257;SDS011;46115;44.484;11.314;2023-04-01T01:17:26;14.93;;;10.95;;
60257;SDS011;46115;44.484;11.314;2023-04-01T01:21:47;14.88;;;10.88;;
60257;SDS011;46115;44.484;11.314;2023-04-01T01:26:09;15.00;;;10.98;;
60257;SDS011;46115;44.484;11.314;2023-04-01T01:30:38;20.55;;;12.70;;
60257;SDS011;46115;44.484;11.314;2023-04-01T01:34:46;17.90;;;13.23;;
60257;SDS011;46115;44.484;11.314;2023-04-01T01:38:56;19.05;;;12.77;;
60257;SDS011;46115;44.484;11.314;2023-04-01T01:43:00;18.27;;;12.90;;
60257;SDS011;46115;44.484;11.314;2023-04-01T01:47:07;20.58;;;12.35;;
60257;SDS011;46115;44.484;11.314;2023-04-01T01:51:10;18.40;;;12.20;;
60257;SDS011;46115;44.484;11.314;2023-04-01T01:55:26;17.42;;;12.68;;
60257;SDS011;46115;44.484;11.314;2023-04-01T01:59:31;20.58;;;12.90;;
60257;SDS011;46115;44.484;11.314;2023-04-01T02:03:37;21.08;;;13.82;;
60257;SDS011;46115;44.484;11.314;2023-04-01T02:07:42;21.40;;;14.07;;
60257;SDS011;46115;44.484;11.314;2023-04-01T02:11:51;20.83;;;14.50;;
60257;SDS011;46115;44.484;11.314;2023-04-01T02:15:58;22.65;;;14.63;;
60257;SDS011;46115;44.484;11.314;2023-04-01T02:20:06;20.48;;;14.48;;
60257;SDS011;46115;44.484;11.314;2023-04-01T02:24:13;23.77;;;14.85;;
60257;SDS011;46115;44.484;11.314;2023-04-01T02:28:18;19.50;;;13.93;;
60257;SDS011;46115;44.484;11.314;2023-04-01T02:32:22;16.85;;;13.50;;
60257;SDS011;46115;44.484;11.314;2023-04-01T02:36:24;19.20;;;12.60;;
60257;SDS011;46115;44.484;11.314;2023-04-01T02:40:27;17.23;;;12.38;;
60257;SDS011;46115;44.484;11.314;2023-04-01T02:44:31;15.60;;;10.77;;
60257;SDS011;46115;44.484;11.314;2023-04-01T02:48:34;12.23;;;10.00;;
60257;SDS011;46115;44.484;11.314;2023-04-01T02:52:36;14.40;;;10.90;;
60257;SDS011;46115;44.484;11.314;2023-04-01T02:56:39;15.88;;;11.02;;
60257;SDS011;46115;44.484;11.314;2023-04-01T03:00:43;18.98;;;13.68;;
60257;SDS011;46115;44.484;11.314;2023-04-01T03:04:45;21.55;;;14.82;;
60257;SDS011;46115;44.484;11.314;2023-04-01T03:08:48;25.58;;;17.20;;
60257;SDS011;46115;44.484;11.314;2023-04-01T03:12:50;22.17;;;16.45;;
60257;SDS011;46115;44.484;11.314;2023-04-01T03:16:54;22.40;;;16.63;;
60257;SDS011;46115;44.484;11.314;2023-04-01T03:20:57;23.38;;;14.50;;
60257;SDS011;46115;44.484;11.314;2023-04-01T03:25:13;16.90;;;11.15;;
60257;SDS011;46115;44.484;11.314;2023-04-01T03:29:16;13.98;;;11.27;;
60257;SDS011;46115;44.484;11.314;2023-04-01T03:33:20;19.95;;;12.00;;
60257;SDS011;46115;44.484;11.314;2023-04-01T03:37:22;20.75;;;15.07;;
60257;SDS011;46115;44.484;11.314;2023-04-01T03:41:25;19.98;;;13.95;;
60257;SDS011;46115;44.484;11.314;2023-04-01T03:45:28;18.67;;;13.38;;
60257;SDS011;46115;44.484;11.314;2023-04-01T03:49:32;15.90;;;10.95;;
60257;SDS011;46115;44.484;11.314;2023-04-01T03:53:35;14.90;;;10.40;;
60257;SDS011;46115;44.484;11.314;2023-04-01T03:57:39;14.80;;;10.80;;
60257;SDS011;46115;44.484;11.314;2023-04-01T04:01:50;12.35;;;10.40;;
60257;SDS011;46115;44.484;11.314;2023-04-01T04:09:57;8.30;;;6.72;;
60257;SDS011;46115;44.484;11.314;2023-04-01T04:14:00;6.90;;;4.13;;
60257;SDS011;46115;44.484;11.314;2023-04-01T04:18:03;5.05;;;3.10;;
60257;SDS011;46115;44.484;11.314;2023-04-01T04:22:07;6.07;;;3.03;;
60257;SDS011;46115;44.484;11.314;2023-04-01T04:26:10;5.28;;;3.50;;
60257;SDS011;46115;44.484;11.314;2023-04-01T04:30:14;6.50;;;4.07;;
60257;SDS011;46115;44.484;11.314;2023-04-01T04:34:17;8.57;;;5.55;;
60257;SDS011;46115;44.484;11.314;2023-04-01T04:38:21;8.13;;;7.00;;
60257;SDS011;46115;44.484;11.314;2023-04-01T04:42:23;9.38;;;6.85;;
60257;SDS011;46115;44.484;11.314;2023-04-01T04:46:30;8.15;;;6.05;;
60257;SDS011;46115;44.484;11.314;2023-04-01T04:50:43;8.13;;;4.72;;
60257;SDS011;46115;44.484;11.314;2023-04-01T04:54:48;7.03;;;4.70;;
60257;SDS011;46115;44.484;11.314;2023-04-01T04:58:50;6.03;;;3.78;;
60257;SDS011;46115;44.484;11.314;2023-04-01T05:02:57;7.50;;;4.50;;
60257;SDS011;46115;44.484;11.314;2023-04-01T05:07:00;8.57;;;5.43;;
60257;SDS011;46115;44.484;11.314;2023-04-01T05:11:06;9.57;;;5.97;;
60257;SDS011;46115;44.484;11.314;2023-04-01T05:15:10;8.10;;;4.22;;
60257;SDS011;46115;44.484;11.314;2023-04-01T05:19:14;6.97;;;3.47;;
60257;SDS011;46115;44.484;11.314;2023-04-01T05:23:16;5.40;;;3.05;;
60257;SDS011;46115;44.484;11.314;2023-04-01T05:27:22;5.95;;;3.10;;
60257;SDS011;46115;44.484;11.314;2023-04-01T05:31:25;4.80;;;2.53;;
60257;SDS011;46115;44.484;11.314;2023-04-01T05:35:28;6.40;;;2.65;;
60257;SDS011;46115;44.484;11.314;2023-04-01T05:39:31;6.57;;;2.40;;
60257;SDS011;46115;44.484;11.314;2023-04-01T05:47:58;4.10;;;2.50;;
60257;SDS011;46115;44.484;11.314;2023-04-01T05:52:04;5.22;;;2.30;;
60257;SDS011;46115;44.484;11.314;2023-04-01T05:56:09;4.32;;;2.75;;
60257;SDS011;46115;44.484;11.314;2023-04-01T06:00:18;7.47;;;3.28;;
60257;SDS011;46115;44.484;11.314;2023-04-01T06:04:22;5.50;;;3.58;;
60257;SDS011;46115;44.484;11.314;2023-04-01T06:08:25;5.38;;;3.10;;
60257;SDS011;46115;44.484;11.314;2023-04-01T06:12:37;4.05;;;2.90;;
60257;SDS011;46115;44.484;11.314;2023-04-01T06:16:52;6.70;;;2.92;;
60257;SDS011;46115;44.484;11.314;2023-04-01T06:21:08;6.15;;;2.65;;
60257;SDS011;46115;44.484;11.314;2023-04-01T06:25:39;6.13;;;2.70;;
60257;SDS011;46115;44.484;11.314;2023-04-01T06:29:55;15.73;;;3.33;;
60257;SDS011;46115;44.484;11.314;2023-04-01T06:34:08;6.25;;;2.85;;
60257;SDS011;46115;44.484;11.314;2023-04-01T06:38:40;9.13;;;2.90;;
60257;SDS011;46115;44.484;11.314;2023-04-01T06:43:01;8.10;;;2.90;;
60257;SDS011;46115;44.484;11.314;2023-04-01T06:47:45;26.42;;;4.18;;
60257;SDS011;46115;44.484;11.314;2023-04-01T06:52:19;6.18;;;2.67;;
60257;SDS011;46115;44.484;11.314;2023-04-01T06:56:48;6.28;;;2.72;;
60257;SDS011;46115;44.484;11.314;2023-04-01T07:00:58;9.43;;;2.53;;
60257;SDS011;46115;44.484;11.314;2023-04-01T07:05:04;6.78;;;2.58;;
60257;SDS011;46115;44.484;11.314;2023-04-01T07:09:10;4.85;;;2.40;;
60257;SDS011;46115;44.484;11.314;2023-04-01T07:13:41;6.07;;;2.10;;
60257;SDS011;46115;44.484;11.314;2023-04-01T07:17:52;5.80;;;2.17;;
60257;SDS011;46115;44.484;11.314;2023-04-01T07:21:58;4.22;;;2.15;;
60257;SDS011;46115;44.484;11.314;2023-04-01T07:26:18;4.68;;;1.90;;
60257;SDS011;46115;44.484;11.314;2023-04-01T07:30:40;5.07;;;2.17;;
60257;SDS011;46115;44.484;11.314;2023-04-01T07:35:01;4.78;;;2.60;;
60257;SDS011;46115;44.484;11.314;2023-04-01T07:39:15;6.30;;;2.88;;
60257;SDS011;46115;44.484;11.314;2023-04-01T07:43:40;8.02;;;3.03;;
60257;SDS011;46115;44.484;11.314;2023-04-01T07:48:08;6.07;;;3.50;;
60257;SDS011;46115;44.484;11.314;2023-04-01T07:52:21;9.77;;;4.93;;
60257;SDS011;46115;44.484;11.314;2023-04-01T07:56:39;10.63;;;6.88;;
60257;SDS011;46115;44.484;11.314;2023-04-01T08:00:56;10.95;;;6.68;;
60257;SDS011;46115;44.484;11.314;2023-04-01T08:05:14;10.88;;;8.30;;
60257;SDS011;46115;44.484;11.314;2023-04-01T08:09:26;11.15;;;8.88;;
60257;SDS011;46115;44.484;11.314;2023-04-01T08:18:30;10.13;;;8.63;;
60257;SDS011;46115;44.484;11.314;2023-04-01T08:22:45;12.43;;;9.25;;
60257;SDS011;46115;44.484;11.314;2023-04-01T08:27:01;11.32;;;8.93;;
60257;SDS011;46115;44.484;11.314;2023-04-01T08:31:09;10.65;;;8.00;;
60257;SDS011;46115;44.484;11.314;2023-04-01T08:35:22;13.38;;;8.43;;
60257;SDS011;46115;44.484;11.314;2023-04-01T08:39:30;12.70;;;8.88;;
60257;SDS011;46115;44.484;11.314;2023-04-01T08:52:42;12.23;;;9.25;;
60257;SDS011;46115;44.484;11.314;2023-04-01T08:56:54;12.05;;;10.18;;
60257;SDS011;46115;44.484;11.314;2023-04-01T09:01:08;13.13;;;10.48;;
60257;SDS011;46115;44.484;11.314;2023-04-01T09:19:33;13.07;;;8.82;;
60257;SDS011;46115;44.484;11.314;2023-04-01T09:23:57;11.68;;;9.15;;
60257;SDS011;46115;44.484;11.314;2023-04-01T09:28:33;10.27;;;8.25;;
60257;SDS011;46115;44.484;11.314;2023-04-01T09:32:58;11.95;;;7.63;;
60257;SDS011;46115;44.484;11.314;2023-04-01T09:37:36;9.45;;;7.18;;
60257;SDS011;46115;44.484;11.314;2023-04-01T09:42:02;12.35;;;7.63;;
60257;SDS011;46115;44.484;11.314;2023-04-01T09:46:29;12.52;;;7.50;;
60257;SDS011;46115;44.484;11.314;2023-04-01T09:50:44;9.55;;;7.07;;
60257;SDS011;46115;44.484;11.314;2023-04-01T09:55:01;8.90;;;6.55;;
60257;SDS011;46115;44.484;11.314;2023-04-01T09:59:31;8.10;;;6.63;;
60257;SDS011;46115;44.484;11.314;2023-04-01T10:08:54;11.82;;;6.03;;
60257;SDS011;46115;44.484;11.314;2023-04-01T10:13:19;8.25;;;5.95;;
60257;SDS011;46115;44.484;11.314;2023-04-01T10:17:43;7.72;;;5.20;;
60257;SDS011;46115;44.484;11.314;2023-04-01T10:26:40;7.57;;;6.15;;
60257;SDS011;46115;44.484;11.314;2023-04-01T10:36:15;7.32;;;4.85;;
60257;SDS011;46115;44.484;11.314;2023-04-01T10:40:46;7.32;;;5.25;;
60257;SDS011;46115;44.484;11.314;2023-04-01T10:45:42;9.90;;;5.15;;
60257;SDS011;46115;44.484;11.314;2023-04-01T10:54:45;7.38;;;5.25;;
60257;SDS011;46115;44.484;11.314;2023-04-01T11:04:44;10.23;;;5.97;;
60257;SDS011;46115;44.484;11.314;2023-04-01T11:23:39;6.28;;;3.75;;
60257;SDS011;46115;44.484;11.314;2023-04-01T11:27:56;5.65;;;4.03;;
60257;SDS011;46115;44.484;11.314;2023-04-01T11:32:21;7.38;;;4.68;;
60257;SDS011;46115;44.484;11.314;2023-04-01T11:36:34;8.73;;;5.20;;
60257;SDS011;46115;44.484;11.314;2023-04-01T11:40:59;5.90;;;4.50;;
60257;SDS011;46115;44.484;11.314;2023-04-01T11:45:49;5.32;;;3.50;;
60257;SDS011;46115;44.484;11.314;2023-04-01T11:50:01;5.80;;;3.95;;
60257;SDS011;46115;44.484;11.314;2023-04-01T11:54:28;7.88;;;3.97;;
60257;SDS011;46115;44.484;11.314;2023-04-01T12:03:26;5.57;;;3.10;;
60257;SDS011;46115;44.484;11.314;2023-04-01T12:08:04;3.67;;;2.33;;
60257;SDS011;46115;44.484;11.314;2023-04-01T12:12:17;4.35;;;2.40;;
60257;SDS011;46115;44.484;11.314;2023-04-01T12:16:37;4.47;;;3.00;;
60257;SDS011;46115;44.484;11.314;2023-04-01T12:20:50;5.60;;;3.50;;
60257;SDS011;46115;44.484;11.314;2023-04-01T12:25:03;7.13;;;3.95;;
60257;SDS011;46115;44.484;11.314;2023-04-01T12:29:29;8.60;;;3.90;;
60257;SDS011;46115;44.484;11.314;2023-04-01T12:33:47;3.85;;;2.40;;
60257;SDS011;46115;44.484;11.314;2023-04-01T12:38:10;6.82;;;2.05;;
60257;SDS011;46115;44.484;11.314;2023-04-01T12:42:24;3.97;;;2.17;;
60257;SDS011;46115;44.484;11.314;2023-04-01T12:46:48;2.87;;;1.87;;
60257;SDS011;46115;44.484;11.314;2023-04-01T12:55:35;3.75;;;2.30;;
60257;SDS011;46115;44.484;11.314;2023-04-01T12:59:45;3.13;;;2.20;;
60257;SDS011;46115;44.484;11.314;2023-04-01T13:04:15;2.90;;;2.08;;
60257;SDS011;46115;44.484;11.314;2023-04-01T13:08:41;2.55;;;1.90;;
60257;SDS011;46115;44.484;11.314;2023-04-01T13:12:57;5.20;;;1.80;;
60257;SDS011;46115;44.484;11.314;2023-04-01T13:17:13;2.83;;;1.98;;
60257;SDS011;46115;44.484;11.314;2023-04-01T13:21:25;3.20;;;1.60;;
60257;SDS011;46115;44.484;11.314;2023-04-01T13:25:37;4.18;;;2.00;;
60257;SDS011;46115;44.484;11.314;2023-04-01T13:29:50;6.28;;;2.35;;
60257;SDS011;46115;44.484;11.314;2023-04-01T13:34:06;4.30;;;2.10;;
60257;SDS011;46115;44.484;11.314;2023-04-01T13:38:25;4.03;;;2.05;;
60257;SDS011;46115;44.484;11.314;2023-04-01T13:42:49;2.67;;;1.80;;
60257;SDS011;46115;44.484;11.314;2023-04-01T13:51:47;2.72;;;1.60;;
60257;SDS011;46115;44.484;11.314;2023-04-01T13:56:21;3.28;;;1.40;;
60257;SDS011;46115;44.484;11.314;2023-04-01T14:00:35;2.20;;;1.50;;
60257;SDS011;46115;44.484;11.314;2023-04-01T14:04:52;2.63;;;0.80;;
60257;SDS011;46115;44.484;11.314;2023-04-01T14:09:11;1.42;;;0.80;;
60257;SDS011;46115;44.484;11.314;2023-04-01T14:13:29;2.22;;;0.90;;
60257;SDS011;46115;44.484;11.314;2023-04-01T14:17:42;3.17;;;0.70;;
60257;SDS011;46115;44.484;11.314;2023-04-01T14:22:17;3.25;;;1.00;;
60257;SDS011;46115;44.484;11.314;2023-04-01T14:26:35;2.40;;;1.50;;
60257;SDS011;46115;44.484;11.314;2023-04-01T14:31:00;2.60;;;1.20;;
60257;SDS011;46115;44.484;11.314;2023-04-01T14:35:21;2.97;;;1.40;;
60257;SDS011;46115;44.484;11.314;2023-04-01T14:44:24;2.22;;;1.30;;
60257;SDS011;46115;44.484;11.314;2023-04-01T14:48:49;1.83;;;1.40;;
60257;SDS011;46115;44.484;11.314;2023-04-01T14:52:58;2.63;;;1.45;;
60257;SDS011;46115;44.484;11.314;2023-04-01T14:57:15;2.30;;;1.60;;
60257;SDS011;46115;44.484;11.314;2023-04-01T15:01:26;4.47;;;1.70;;
60257;SDS011;46115;44.484;11.314;2023-04-01T15:05:44;3.38;;;1.70;;
60257;SDS011;46115;44.484;11.314;2023-04-01T15:09:52;3.08;;;1.55;;
60257;SDS011;46115;44.484;11.314;2023-04-01T15:18:32;3.53;;;1.90;;
60257;SDS011;46115;44.484;11.314;2023-04-01T15:22:45;2.00;;;1.52;;
60257;SDS011;46115;44.484;11.314;2023-04-01T15:27:07;3.40;;;1.40;;
60257;SDS011;46115;44.484;11.314;2023-04-01T15:31:18;3.63;;;1.63;;
60257;SDS011;46115;44.484;11.314;2023-04-01T15:35:32;3.50;;;1.63;;
60257;SDS011;46115;44.484;11.314;2023-04-01T15:39:49;5.38;;;1.42;;
60257;SDS011;46115;44.484;11.314;2023-04-01T15:43:57;3.85;;;1.70;;
60257;SDS011;46115;44.484;11.314;2023-04-01T15:48:01;4.53;;;1.52;;
60257;SDS011;46115;44.484;11.314;2023-04-01T15:52:10;5.38;;;1.70;;
60257;SDS011;46115;44.484;11.314;2023-04-01T15:56:41;7.10;;;1.85;;
60257;SDS011;46115;44.484;11.314;2023-04-01T16:00:57;10.32;;;2.10;;
60257;SDS011;46115;44.484;11.314;2023-04-01T16:05:20;9.50;;;2.35;;
60257;SDS011;46115;44.484;11.314;2023-04-01T16:09:39;4.13;;;1.70;;
60257;SDS011;46115;44.484;11.314;2023-04-01T16:13:53;5.32;;;2.00;;
60257;SDS011;46115;44.484;11.314;2023-04-01T16:18:07;7.88;;;1.90;;
60257;SDS011;46115;44.484;11.314;2023-04-01T16:22:25;5.82;;;1.80;;
60257;SDS011;46115;44.484;11.314;2023-04-01T16:26:34;5.55;;;1.77;;
60257;SDS011;46115;44.484;11.314;2023-04-01T16:30:42;3.47;;;1.20;;
60257;SDS011;46115;44.484;11.314;2023-04-01T16:34:54;4.00;;;1.20;;
60257;SDS011;46115;44.484;11.314;2023-04-01T16:39:11;8.02;;;0.90;;
60257;SDS011;46115;44.484;11.314;2023-04-01T16:43:30;2.25;;;0.80;;
60257;SDS011;46115;44.484;11.314;2023-04-01T16:47:45;3.60;;;1.02;;
60257;SDS011;46115;44.484;11.314;2023-04-01T16:51:52;3.00;;;1.10;;
60257;SDS011;46115;44.484;11.314;2023-04-01T16:56:04;6.07;;;1.08;;
60257;SDS011;46115;44.484;11.314;2023-04-01T17:00:15;7.50;;;1.10;;
60257;SDS011;46115;44.484;11.314;2023-04-01T17:04:23;4.00;;;1.08;;
60257;SDS011;46115;44.484;11.314;2023-04-01T17:08:37;3.65;;;1.23;;
60257;SDS011;46115;44.484;11.314;2023-04-01T17:13:06;2.72;;;1.27;;
60257;SDS011;46115;44.484;11.314;2023-04-01T17:17:23;2.63;;;1.10;;
60257;SDS011;46115;44.484;11.314;2023-04-01T17:21:43;3.95;;;1.15;;
60257;SDS011;46115;44.484;11.314;2023-04-01T17:25:55;2.58;;;1.25;;
60257;SDS011;46115;44.484;11.314;2023-04-01T17:30:11;3.85;;;1.20;;
60257;SDS011;46115;44.484;11.314;2023-04-01T17:34:24;3.03;;;1.20;;
60257;SDS011;46115;44.484;11.314;2023-04-01T17:43:12;9.65;;;1.10;;
60257;SDS011;46115;44.484;11.314;2023-04-01T17:47:39;3.05;;;1.23;;
60257;SDS011;46115;44.484;11.314;2023-04-01T17:51:51;3.72;;;1.30;;
60257;SDS011;46115;44.484;11.314;2023-04-01T17:56:07;3.95;;;1.10;;
60257;SDS011;46115;44.484;11.314;2023-04-01T18:00:22;2.72;;;0.88;;
60257;SDS011;46115;44.484;11.314;2023-04-01T18:08:58;2.65;;;0.93;;
60257;SDS011;46115;44.484;11.314;2023-04-01T18:13:17;4.18;;;1.00;;
60257;SDS011;46115;44.484;11.314;2023-04-01T18:17:46;2.50;;;0.80;;
60257;SDS011;46115;44.484;11.314;2023-04-01T22:06:13;17.17;;;2.80;;
60257;SDS011;46115;44.484;11.314;2023-04-01T22:10:26;12.77;;;2.42;;
60257;SDS011;46115;44.484;11.314;2023-04-01T22:14:37;13.65;;;2.92;;
60257;SDS011;46115;44.484;11.314;2023-04-01T22:18:48;13.73;;;2.65;;
60257;SDS011;46115;44.484;11.314;2023-04-01T22:23:01;18.02;;;2.80;;
60257;SDS011;46115;44.484;11.314;2023-04-01T22:27:12;12.70;;;2.60;;
60257;SDS011;46115;44.484;11.314;2023-04-01T22:31:24;11.95;;;2.63;;
60257;SDS011;46115;44.484;11.314;2023-04-01T22:35:32;15.00;;;2.88;;
60257;SDS011;46115;44.484;11.314;2023-04-01T22:39:47;16.27;;;2.90;;
60257;SDS011;46115;44.484;11.314;2023-04-01T22:43:59;15.60;;;2.85;;
60257;SDS011;46115;44.484;11.314;2023-04-01T22:48:04;14.80;;;2.75;;
60257;SDS011;46115;44.484;11.314;2023-04-01T22:52:14;16.25;;;2.97;;
60257;SDS011;46115;44.484;11.314;2023-04-01T22:56:26;11.48;;;2.65;;
60257;SDS011;46115;44.484;11.314;2023-04-01T23:00:33;16.75;;;2.88;;
60257;SDS011;46115;44.484;11.314;2023-04-01T23:04:42;13.65;;;2.65;;
60257;SDS011;46115;44.484;11.314;2023-04-01T23:09:00;15.98;;;2.95;;
60257;SDS011;46115;44.484;11.314;2023-04-01T23:13:12;14.68;;;2.95;;
60257;SDS011;46115;44.484;11.314;2023-04-01T23:21:44;14.48;;;2.90;;
60257;SDS011;46115;44.484;11.314;2023-04-01T23:25:54;13.30;;;2.38;;
60257;SDS011;46115;44.484;11.314;2023-04-01T23:30:10;13.23;;;2.60;;
60257;SDS011;46115;44.484;11.314;2023-04-01T23:34:48;12.63;;;2.72;;
60257;SDS011;46115;44.484;11.314;2023-04-01T23:38:53;19.80;;;2.88;;
60257;SDS011;46115;44.484;11.314;2023-04-01T23:42:56;11.80;;;2.20;;
60257;SDS011;46115;44.484;11.314;2023-04-01T23:55:12;17.00;;;2.78;;
60257;SDS011;46115;44.484;11.314;2023-04-01T23:59:17;17.02;;;2.95;;
